Time;durP1;ratioP1;P1;durP2;ratioP2;P2;SDS_P1;SDS_P2;PMS_P1;PMS_P2;Temp;Humidity;BMP_temperature;BMP_pressure;BME280_temperature;BME280_humidity;BME280_pressure;Samples;Min_cycle;Max_cycle;Signal;HPM_P1;HPM_P2
2022/06/09 00:01:42;;;;;;;1.65;1.15;;;17.50;99.90;;;;;;6228471;28;20056;-82
2022/06/09 00:04:44;;;;;;;2.75;1.25;;;17.50;99.90;;;;;;6225674;28;20054;-81
2022/06/09 00:07:49;;;;;;;2.45;1.35;;;17.40;99.90;;;;;;6224292;28;20662;-82
2022/06/09 00:10:57;;;;;;;3.55;1.10;;;17.40;99.90;;;;;;6224751;28;20527;-82
2022/06/09 00:13:59;;;;;;;1.80;0.73;;;17.40;99.90;;;;;;6224665;28;20046;-82
2022/06/09 00:17:01;;;;;;;2.50;0.52;;;17.40;99.90;;;;;;6225619;28;20049;-81
2022/06/09 00:20:03;;;;;;;1.15;0.38;;;17.40;99.90;;;;;;6224028;28;20046;-81
2022/06/09 00:23:06;;;;;;;0.98;0.45;;;17.30;99.90;;;;;;6221463;28;20402;-81
2022/06/09 00:26:08;;;;;;;1.05;0.40;;;17.20;99.90;;;;;;6224120;28;20053;-81
2022/06/09 00:29:10;;;;;;;4.20;0.60;;;17.10;99.90;;;;;;6224463;28;20509;-81
2022/06/09 00:32:12;;;;;;;1.98;0.40;;;17.10;99.90;;;;;;6223824;28;20053;-83
2022/06/09 00:35:15;;;;;;;1.05;0.50;;;17.10;99.90;;;;;;6224098;28;20056;-81
2022/06/09 00:38:18;;;;;;;3.63;0.40;;;17.00;99.90;;;;;;6223599;28;20041;-84
2022/06/09 00:41:20;;;;;;;2.88;0.77;;;17.00;99.90;;;;;;6223326;28;20050;-81
2022/06/09 00:44:24;;;;;;;1.45;0.57;;;16.90;99.90;;;;;;6224674;28;20056;-81
2022/06/09 00:47:29;;;;;;;7.60;0.63;;;16.90;99.90;;;;;;6224173;28;20046;-81
2022/06/09 00:50:32;;;;;;;1.02;0.50;;;16.80;99.90;;;;;;6223209;28;20498;-81
2022/06/09 00:53:37;;;;;;;1.27;0.75;;;16.80;99.90;;;;;;6223270;28;20077;-81
2022/06/09 00:56:47;;;;;;;7.07;0.93;;;16.80;99.90;;;;;;6223939;28;20063;-81
2022/06/09 00:59:53;;;;;;;0.93;0.55;;;16.80;99.90;;;;;;6222991;28;20047;-81
2022/06/09 01:02:59;;;;;;;2.22;0.60;;;16.70;99.90;;;;;;6223492;28;20425;-81
2022/06/09 01:06:06;;;;;;;1.33;0.50;;;16.60;99.90;;;;;;6224249;28;20042;-81
2022/06/09 01:09:13;;;;;;;2.80;0.80;;;16.60;99.90;;;;;;6223605;28;20050;-82
2022/06/09 01:12:27;;;;;;;3.55;0.65;;;16.60;99.90;;;;;;6223308;28;20042;-82
2022/06/09 01:15:33;;;;;;;0.88;0.60;;;16.50;99.90;;;;;;6223456;28;20413;-81
2022/06/09 01:18:48;;;;;;;1.13;0.40;;;16.50;99.90;;;;;;6223122;28;20049;-81
2022/06/09 01:22:23;;;;;;;3.10;0.70;;;16.60;99.90;;;;;;6223287;28;20497;-81
2022/06/09 01:25:53;;;;;;;1.52;0.65;;;16.50;99.90;;;;;;6223803;28;20054;-81
2022/06/09 01:29:28;;;;;;;3.63;0.90;;;16.50;99.90;;;;;;6223708;28;20046;-82
2022/06/09 01:32:36;;;;;;;4.65;0.88;;;16.50;99.90;;;;;;6199403;28;20429;-82
2022/06/09 01:35:43;;;;;;;3.45;2.17;;;16.50;99.90;;;;;;6199109;28;20046;-82
2022/06/09 01:38:47;;;;;;;3.88;0.80;;;16.50;99.90;;;;;;6198359;28;20053;-84
2022/06/09 01:41:49;;;;;;;1.55;0.82;;;16.40;99.90;;;;;;6199037;28;20053;-82
2022/06/09 01:44:54;;;;;;;1.48;0.65;;;16.40;99.90;;;;;;6199950;28;20054;-81
2022/06/09 01:54:19;;;;;;;1.33;0.73;;;16.30;99.90;;;;;;6837048;23;20054;-79
2022/06/09 01:57:25;;;;;;;1.23;0.70;;;16.40;99.90;;;;;;6206007;28;20046;-82
2022/06/09 02:00:29;;;;;;;1.75;0.70;;;16.40;99.90;;;;;;6226723;28;20046;-82
2022/06/09 02:03:34;;;;;;;4.10;1.05;;;16.40;99.90;;;;;;6229550;28;20046;-80
2022/06/09 02:06:37;;;;;;;5.20;0.82;;;16.40;99.90;;;;;;6228919;28;20428;-81
2022/06/09 02:09:41;;;;;;;1.67;0.73;;;16.30;99.90;;;;;;6229247;28;20050;-79
2022/06/09 02:12:44;;;;;;;5.63;1.10;;;16.40;99.90;;;;;;6230226;28;20386;-80
2022/06/09 02:15:49;;;;;;;1.27;0.60;;;16.30;99.90;;;;;;6230715;28;20424;-80
2022/06/09 02:18:53;;;;;;;2.72;0.75;;;16.30;99.90;;;;;;6229744;28;20049;-82
2022/06/09 02:21:55;;;;;;;1.40;0.90;;;16.30;99.90;;;;;;6229599;28;20452;-81
2022/06/09 02:24:59;;;;;;;2.10;0.80;;;16.30;99.90;;;;;;6229854;28;20046;-84
2022/06/09 02:28:00;;;;;;;3.50;1.25;;;16.20;99.90;;;;;;6228380;28;20050;-82
2022/06/09 02:31:03;;;;;;;3.70;1.00;;;16.20;99.90;;;;;;6229675;28;20056;-83
2022/06/09 02:34:05;;;;;;;3.10;1.23;;;16.10;99.90;;;;;;6231697;28;20038;-81
2022/06/09 02:37:07;;;;;;;4.18;1.08;;;16.10;99.90;;;;;;6231174;28;20050;-79
2022/06/09 02:40:11;;;;;;;14.70;1.95;;;16.20;99.90;;;;;;6230609;28;20048;-80
2022/06/09 02:43:13;;;;;;;4.53;1.40;;;16.20;99.90;;;;;;6229018;28;20421;-81
2022/06/09 02:46:15;;;;;;;3.83;1.70;;;16.10;99.90;;;;;;6229563;28;20042;-82
2022/06/09 02:49:17;;;;;;;7.10;1.80;;;16.10;99.90;;;;;;6230664;28;20046;-81
2022/06/09 02:52:19;;;;;;;5.25;1.48;;;16.00;99.90;;;;;;6231186;28;20046;-79
2022/06/09 02:55:22;;;;;;;7.07;1.75;;;15.90;99.90;;;;;;6224318;28;20531;-79
2022/06/09 02:58:24;;;;;;;6.72;2.13;;;15.90;99.90;;;;;;6204983;28;20042;-78
2022/06/09 03:01:28;;;;;;;9.02;1.83;;;15.90;99.90;;;;;;6206392;28;20054;-80
2022/06/09 03:04:30;;;;;;;4.25;2.50;;;15.90;99.90;;;;;;6206307;28;20055;-79
2022/06/09 03:07:32;;;;;;;3.65;1.83;;;15.90;99.90;;;;;;6205810;28;20046;-79
2022/06/09 03:10:35;;;;;;;3.78;1.92;;;15.90;99.90;;;;;;6205886;28;20046;-80
2022/06/09 03:13:37;;;;;;;7.63;2.28;;;15.90;99.90;;;;;;6205975;28;20054;-79
2022/06/09 03:16:39;;;;;;;5.85;2.28;;;15.90;99.90;;;;;;6204397;28;20046;-80
2022/06/09 03:19:41;;;;;;;5.28;2.35;;;15.90;99.90;;;;;;6205303;28;20066;-80
2022/06/09 03:22:43;;;;;;;4.78;2.28;;;15.80;99.90;;;;;;6207634;28;20050;-80
2022/06/09 03:25:46;;;;;;;3.92;2.20;;;15.70;99.90;;;;;;6207935;28;20042;-80
2022/06/09 03:28:48;;;;;;;5.53;2.63;;;15.70;99.90;;;;;;6206385;28;20054;-82
2022/06/09 03:31:50;;;;;;;6.50;2.60;;;15.70;99.90;;;;;;6209185;28;20038;-85
2022/06/09 03:34:51;;;;;;;9.90;2.33;;;15.70;99.90;;;;;;6211667;28;20065;-79
2022/06/09 03:37:53;;;;;;;6.03;2.42;;;15.70;99.90;;;;;;6209796;28;20042;-79
2022/06/09 03:40:56;;;;;;;7.90;2.50;;;15.80;99.90;;;;;;6267792;23;20050;-85
2022/06/09 03:43:58;;;;;;;7.20;2.75;;;15.80;99.90;;;;;;6255139;28;20060;-85
2022/06/09 03:47:00;;;;;;;6.47;3.13;;;15.70;99.90;;;;;;6255199;28;20049;-84
2022/06/09 03:50:01;;;;;;;15.07;3.40;;;15.70;99.90;;;;;;6256593;28;20412;-85
2022/06/09 03:53:03;;;;;;;7.93;2.90;;;15.70;99.90;;;;;;6256432;28;20057;-85
2022/06/09 03:56:07;;;;;;;7.40;3.10;;;15.70;99.90;;;;;;6251704;28;20052;-84
2022/06/09 03:59:10;;;;;;;11.05;2.97;;;15.70;99.90;;;;;;6236458;28;20046;-85
2022/06/09 04:02:11;;;;;;;6.82;2.70;;;15.60;99.90;;;;;;6243271;28;20029;-82
2022/06/09 04:05:14;;;;;;;10.55;3.05;;;15.50;99.90;;;;;;6235001;28;20053;-83
2022/06/09 04:08:15;;;;;;;12.18;3.25;;;15.40;99.90;;;;;;6226602;28;20428;-85
2022/06/09 04:11:20;;;;;;;16.80;6.50;;;15.40;99.90;;;;;;6227544;28;20048;-84
2022/06/09 04:14:22;;;;;;;10.05;3.20;;;15.30;99.90;;;;;;6227598;28;20042;-84
2022/06/09 04:17:24;;;;;;;8.30;2.75;;;15.30;99.90;;;;;;6226180;28;20509;-84
2022/06/09 04:20:27;;;;;;;8.95;3.13;;;15.30;99.90;;;;;;6226773;28;20163;-83
2022/06/09 04:23:29;;;;;;;9.30;2.90;;;15.20;99.90;;;;;;6226740;28;20045;-84
2022/06/09 04:26:35;;;;;;;7.90;3.10;;;15.30;99.90;;;;;;6227078;28;20504;-84
2022/06/09 04:29:37;;;;;;;7.10;3.10;;;15.40;99.90;;;;;;6226560;28;20053;-85
2022/06/09 04:32:39;;;;;;;12.35;3.20;;;15.50;99.90;;;;;;6228082;28;20485;-84
2022/06/09 04:35:40;;;;;;;9.77;2.90;;;15.70;99.90;;;;;;6227845;28;20069;-83
2022/06/09 04:38:42;;;;;;;18.73;3.60;;;16.70;99.90;;;;;;6226912;28;20046;-85
2022/06/09 04:41:45;;;;;;;7.28;3.60;;;18.40;99.90;;;;;;6226717;28;20056;-83
2022/06/09 04:44:47;;;;;;;6.80;2.60;;;20.20;98.10;;;;;;6228012;28;20053;-85
2022/06/09 04:47:48;;;;;;;9.38;2.20;;;21.60;95.20;;;;;;6227549;28;20049;-85
2022/06/09 04:50:50;;;;;;;4.30;1.83;;;22.90;93.50;;;;;;6227333;28;20129;-86
2022/06/09 04:53:53;;;;;;;4.97;1.25;;;24.10;91.70;;;;;;6228075;28;20176;-85
2022/06/09 04:56:57;;;;;;;2.25;0.98;;;25.00;88.30;;;;;;6229988;28;20136;-85
2022/06/09 04:59:58;;;;;;;6.03;1.60;;;25.80;83.80;;;;;;6246100;28;20042;-84
2022/06/09 05:03:01;;;;;;;5.55;0.65;;;26.60;79.00;;;;;;6253853;28;20049;-86
2022/06/09 05:06:04;;;;;;;4.65;0.70;;;27.20;74.80;;;;;;6253656;28;20139;-84
2022/06/09 05:09:05;;;;;;;3.97;0.47;;;27.70;70.50;;;;;;6253405;28;20050;-85
2022/06/09 05:12:09;;;;;;;1.70;0.45;;;28.40;68.30;;;;;;6251759;28;20045;-85
2022/06/09 05:15:14;;;;;;;6.10;0.80;;;28.40;66.60;;;;;;6251250;28;20045;-83
2022/06/09 05:18:15;;;;;;;1.30;0.50;;;27.70;67.40;;;;;;6250950;28;20417;-86
2022/06/09 05:21:17;;;;;;;3.03;0.75;;;27.30;67.30;;;;;;6251689;28;20053;-83
2022/06/09 05:24:19;;;;;;;5.68;0.80;;;28.20;66.10;;;;;;6247844;28;20132;-83
2022/06/09 05:27:22;;;;;;;4.85;0.73;;;29.10;62.60;;;;;;6246528;28;20056;-84
2022/06/09 05:30:26;;;;;;;6.00;1.02;;;29.80;60.20;;;;;;6246353;28;20538;-84
2022/06/09 05:33:28;;;;;;;3.53;0.73;;;30.20;58.70;;;;;;6247011;28;20152;-85
2022/06/09 05:36:29;;;;;;;3.25;0.73;;;30.70;56.90;;;;;;6247525;28;20058;-85
2022/06/09 05:46:17;;;;;;;2.30;0.52;;;33.00;50.20;;;;;;6173127;28;20560;-85
2022/06/09 05:49:19;;;;;;;4.25;1.25;;;34.10;46.80;;;;;;6246869;28;20045;-84
2022/06/09 05:52:24;;;;;;;15.25;0.75;;;34.90;45.20;;;;;;6247029;28;20057;-84
2022/06/09 05:55:27;;;;;;;9.13;0.68;;;35.50;42.80;;;;;;6246454;28;20423;-84
2022/06/09 05:58:30;;;;;;;3.97;0.88;;;36.10;41.20;;;;;;6237246;28;20045;-85
2022/06/09 06:01:32;;;;;;;2.92;0.60;;;36.50;39.70;;;;;;6245989;28;20136;-85
2022/06/09 06:04:33;;;;;;;2.33;0.60;;;37.00;39.60;;;;;;6247482;28;20408;-85
2022/06/09 06:07:35;;;;;;;4.97;1.05;;;36.90;38.30;;;;;;6246173;28;20051;-84
2022/06/09 06:10:37;;;;;;;5.80;1.45;;;37.20;37.50;;;;;;6246010;28;20042;-85
2022/06/09 06:13:40;;;;;;;5.68;0.98;;;36.80;37.40;;;;;;6246484;28;20049;-85
2022/06/09 06:16:42;;;;;;;4.75;0.90;;;36.60;37.00;;;;;;6246479;28;20416;-85
2022/06/09 06:19:44;;;;;;;5.07;0.80;;;35.40;38.10;;;;;;6245768;28;20163;-86
2022/06/09 06:26:01;;;;;;;5.50;0.80;;;33.80;41.70;;;;;;6246828;28;20064;-86
2022/06/09 06:29:06;;;;;;;4.78;0.55;;;35.60;39.00;;;;;;6246609;28;20050;-86
2022/06/09 06:32:08;;;;;;;7.60;0.85;;;36.70;36.20;;;;;;6246001;28;20037;-86
2022/06/09 06:35:10;;;;;;;7.65;0.70;;;36.50;36.50;;;;;;6246470;28;20045;-86
2022/06/09 06:38:12;;;;;;;7.10;0.73;;;34.40;38.60;;;;;;6245706;28;20042;-86
2022/06/09 06:41:14;;;;;;;3.20;0.28;;;33.40;39.60;;;;;;6250221;28;20045;-85
2022/06/09 06:44:17;;;;;;;4.97;1.10;;;31.30;41.70;;;;;;6250825;28;20056;-84
2022/06/09 06:47:19;;;;;;;2.25;0.70;;;28.90;46.40;;;;;;6251365;28;20054;-85
2022/06/09 06:50:21;;;;;;;4.88;0.80;;;27.30;50.60;;;;;;6251239;28;20042;-85
2022/06/09 06:53:23;;;;;;;2.58;0.88;;;26.00;53.70;;;;;;6252113;28;20053;-85
2022/06/09 06:56:25;;;;;;;6.13;1.13;;;24.90;56.70;;;;;;6252666;28;20057;-84
2022/06/09 06:59:28;;;;;;;4.15;0.75;;;24.30;59.00;;;;;;6241788;28;20145;-84
2022/06/09 07:02:30;;;;;;;7.07;1.42;;;23.90;61.10;;;;;;6248305;28;20045;-85
2022/06/09 07:05:32;;;;;;;4.93;0.65;;;23.80;61.20;;;;;;6254216;28;20057;-84
2022/06/09 07:08:35;;;;;;;5.90;0.90;;;23.60;62.50;;;;;;6254589;28;20057;-83
2022/06/09 07:11:39;;;;;;;6.40;1.23;;;23.20;64.80;;;;;;6251176;28;20048;-85
2022/06/09 07:14:42;;;;;;;6.50;1.13;;;22.40;66.30;;;;;;6254151;28;20042;-87
2022/06/09 07:17:44;;;;;;;5.55;0.77;;;21.90;69.10;;;;;;6255368;28;20041;-86
2022/06/09 07:20:46;;;;;;;4.22;0.70;;;21.50;71.10;;;;;;6257180;28;20050;-85
2022/06/09 07:23:48;;;;;;;10.70;1.10;;;21.20;72.90;;;;;;6258900;28;20041;-86
2022/06/09 07:26:49;;;;;;;7.82;1.23;;;20.90;75.20;;;;;;6246786;28;20046;-85
2022/06/09 07:29:52;;;;;;;10.75;1.00;;;20.90;76.10;;;;;;6254346;28;20045;-86
2022/06/09 07:32:55;;;;;;;4.18;0.57;;;21.10;76.10;;;;;;6259537;28;20046;-84
2022/06/09 07:35:57;;;;;;;6.63;0.80;;;21.40;75.30;;;;;;6257554;28;20210;-84
2022/06/09 07:38:59;;;;;;;6.03;0.75;;;21.30;75.40;;;;;;6256648;28;20057;-85
2022/06/09 07:42:01;;;;;;;1.50;0.30;;;21.30;76.00;;;;;;6257321;28;20052;-85
2022/06/09 07:45:05;;;;;;;4.32;0.90;;;21.20;76.30;;;;;;6262947;28;20125;-84
2022/06/09 07:48:08;;;;;;;7.65;0.80;;;21.10;76.70;;;;;;6252227;28;20128;-84
2022/06/09 07:51:10;;;;;;;10.82;1.67;;;21.20;77.00;;;;;;6252418;28;20123;-83
2022/06/09 07:54:12;;;;;;;5.40;0.95;;;21.60;76.80;;;;;;6252273;28;20167;-84
2022/06/09 07:57:13;;;;;;;3.60;0.88;;;22.40;73.90;;;;;;6227497;28;20050;-84
2022/06/09 08:00:19;;;;;;;4.47;1.00;;;22.60;73.40;;;;;;6234307;28;20424;-82
2022/06/09 08:03:24;;;;;;;3.88;0.80;;;22.20;74.10;;;;;;6230670;28;20053;-84
2022/06/09 08:06:26;;;;;;;5.28;0.60;;;21.90;75.50;;;;;;6228159;28;20417;-84
2022/06/09 08:09:28;;;;;;;2.53;0.57;;;22.50;75.30;;;;;;6228029;28;20421;-83
2022/06/09 08:12:30;;;;;;;6.55;0.65;;;23.00;73.90;;;;;;6228230;28;20050;-83
2022/06/09 08:15:34;;;;;;;2.13;0.70;;;23.30;71.70;;;;;;6247090;28;20049;-84
2022/06/09 08:18:36;;;;;;;3.95;0.60;;;23.10;70.70;;;;;;6251781;28;20047;-83
2022/06/09 08:21:38;;;;;;;11.10;0.98;;;22.90;69.50;;;;;;6251980;28;20128;-84
2022/06/09 08:24:39;;;;;;;4.00;1.02;;;23.00;69.00;;;;;;6253679;28;20072;-85
2022/06/09 08:27:42;;;;;;;6.05;0.77;;;23.10;68.60;;;;;;6251800;28;20049;-84
2022/06/09 08:30:45;;;;;;;6.13;1.02;;;23.00;69.60;;;;;;6252272;28;20048;-84
2022/06/09 08:33:47;;;;;;;6.05;0.75;;;23.70;67.60;;;;;;6252401;28;20420;-84
2022/06/09 08:36:49;;;;;;;3.47;0.60;;;25.90;63.90;;;;;;6251764;28;20497;-86
2022/06/09 08:39:52;;;;;;;4.03;0.43;;;28.90;55.10;;;;;;6251629;28;20542;-85
2022/06/09 08:43:09;;;;;;;4.15;0.43;;;31.20;49.80;;;;;;6253315;28;20575;-85
2022/06/09 08:46:24;;;;;;;4.72;0.93;;;33.40;44.60;;;;;;6252957;28;20164;-84
2022/06/09 08:50:02;;;;;;;5.22;0.60;;;35.40;40.80;;;;;;6253947;28;20055;-87
2022/06/09 08:53:10;;;;;;;4.38;0.57;;;37.00;37.80;;;;;;6252268;28;20052;-84
2022/06/09 08:56:21;;;;;;;4.65;0.50;;;36.50;36.80;;;;;;6251185;28;20046;-85
2022/06/09 08:59:28;;;;;;;7.35;1.00;;;34.90;38.20;;;;;;6251554;28;20061;-86
2022/06/09 09:02:38;;;;;;;3.97;0.63;;;35.00;38.70;;;;;;6247896;28;20095;-82
2022/06/09 09:05:45;;;;;;;3.83;0.73;;;35.90;37.50;;;;;;6252113;28;20424;-85
2022/06/09 09:08:47;;;;;;;5.22;0.80;;;35.90;36.50;;;;;;6249585;28;20100;-86
2022/06/09 09:11:58;;;;;;;2.67;0.60;;;35.20;36.30;;;;;;6251815;28;20092;-83
2022/06/09 09:15:12;;;;;;;7.88;0.95;;;34.20;38.30;;;;;;6250327;28;20046;-84
2022/06/09 09:18:24;;;;;;;6.07;0.95;;;33.80;38.10;;;;;;6252128;28;20047;-84
2022/06/09 09:21:43;;;;;;;3.22;0.90;;;31.90;39.60;;;;;;6251524;28;20057;-83
2022/06/09 09:24:58;;;;;;;8.07;1.10;;;29.90;42.00;;;;;;6251409;28;20475;-85
2022/06/09 09:28:05;;;;;;;2.83;1.27;;;28.40;44.80;;;;;;6251413;28;20452;-84
2022/06/09 09:31:30;;;;;;;3.92;0.70;;;27.50;45.80;;;;;;6250914;28;20045;-85
2022/06/09 09:34:37;;;;;;;4.28;0.52;;;27.20;46.70;;;;;;6251675;28;20045;-85
2022/06/09 09:37:44;;;;;;;6.20;0.70;;;27.20;47.50;;;;;;6251283;28;20068;-85
2022/06/09 09:40:47;;;;;;;8.60;1.00;;;28.90;46.10;;;;;;6238140;28;20316;-84
2022/06/09 09:43:49;;;;;;;1.02;0.32;;;31.40;41.80;;;;;;6233585;28;20049;-86
2022/06/09 09:46:53;;;;;;;1.58;0.75;;;33.20;38.90;;;;;;6252811;28;20053;-83
2022/06/09 09:50:01;;;;;;;2.70;0.65;;;34.60;37.20;;;;;;6226868;28;20049;-83
2022/06/09 09:53:06;;;;;;;4.25;0.75;;;35.40;36.00;;;;;;6227378;28;20394;-83
2022/06/09 09:56:34;;;;;;;3.15;0.52;;;34.90;34.90;;;;;;6227662;28;20145;-84
2022/06/09 09:59:45;;;;;;;6.13;0.77;;;33.90;34.90;;;;;;6227393;28;20041;-84
2022/06/09 10:09:40;;;;;;;5.13;0.40;;;35.00;34.70;;;;;;6228078;28;20112;-85
2022/06/09 10:12:44;;;;;;;1.85;0.40;;;35.40;34.30;;;;;;6227993;28;20077;-85
2022/06/09 10:15:49;;;;;;;6.53;0.63;;;35.20;34.30;;;;;;6244177;28;20472;-84
2022/06/09 10:18:54;;;;;;;3.20;0.90;;;34.10;35.20;;;;;;6257436;28;20477;-84
2022/06/09 10:21:59;;;;;;;3.65;0.70;;;33.20;36.50;;;;;;6257316;28;20390;-85
2022/06/09 10:25:05;;;;;;;3.38;0.55;;;32.30;37.60;;;;;;6258814;28;20192;-85
2022/06/09 10:28:15;;;;;;;3.83;0.32;;;31.40;38.20;;;;;;6257253;28;20056;-86
2022/06/09 10:31:31;;;;;;;2.17;0.47;;;30.60;38.60;;;;;;6257262;28;20066;-85
2022/06/09 10:34:41;;;;;;;3.50;0.50;;;30.00;39.50;;;;;;6257590;28;20134;-84
2022/06/09 10:37:52;;;;;;;6.43;1.17;;;29.60;40.90;;;;;;6257352;28;20551;-83
2022/06/09 10:40:57;;;;;;;3.22;0.52;;;29.30;41.70;;;;;;6257838;28;20108;-84
2022/06/09 10:44:06;;;;;;;2.42;0.50;;;28.90;42.30;;;;;;6257665;28;20049;-85
2022/06/09 10:57:35;;;;;;;4.75;0.60;;;28.90;42.70;;;;;;6256428;28;20057;-85
2022/06/09 11:00:39;;;;;;;4.05;1.10;;;29.10;42.30;;;;;;6256944;28;20536;-85
2022/06/09 11:03:45;;;;;;;4.68;0.65;;;28.90;41.60;;;;;;6255801;28;20420;-85
2022/06/09 11:07:11;;;;;;;3.67;0.55;;;28.80;42.50;;;;;;6254409;28;20048;-84
2022/06/09 11:10:25;;;;;;;7.18;0.77;;;29.00;42.40;;;;;;6257195;28;20049;-85
2022/06/09 11:13:43;;;;;;;3.88;0.65;;;29.40;41.80;;;;;;6259030;28;20431;-86
2022/06/09 11:17:03;;;;;;;4.85;0.88;;;29.40;42.00;;;;;;6250730;28;20041;-83
2022/06/09 11:20:15;;;;;;;6.28;0.90;;;29.70;41.20;;;;;;6258173;28;20050;-85
2022/06/09 11:23:28;;;;;;;2.55;0.43;;;29.50;41.10;;;;;;6259717;28;20055;-85
2022/06/09 11:26:40;;;;;;;3.17;0.40;;;29.30;41.70;;;;;;6261095;28;20071;-83
2022/06/09 11:29:54;;;;;;;7.05;0.68;;;29.30;42.80;;;;;;6270192;28;20125;-86
2022/06/09 11:33:14;;;;;;;2.28;0.70;;;29.80;41.90;;;;;;6256777;28;20061;-86
2022/06/09 11:36:23;;;;;;;1.65;0.30;;;30.30;39.80;;;;;;6256512;28;20049;-84
2022/06/09 11:39:39;;;;;;;3.35;0.40;;;30.40;40.10;;;;;;6256914;28;20047;-85
2022/06/09 11:42:55;;;;;;;1.75;0.40;;;30.50;39.40;;;;;;6256701;28;20045;-86
2022/06/09 11:46:01;;;;;;;5.97;0.63;;;30.50;38.10;;;;;;6258538;28;20041;-84
2022/06/09 11:49:07;;;;;;;4.45;0.55;;;30.50;39.00;;;;;;6256751;28;20045;-85
2022/06/09 11:52:14;;;;;;;21.73;1.00;;;30.70;38.90;;;;;;6253390;28;20392;-84
2022/06/09 11:55:57;;;;;;;4.80;0.82;;;30.80;38.60;;;;;;6252343;28;20049;-85
2022/06/09 11:58:57;;;;;;;2.72;0.73;;;30.90;38.30;;;;;;6252518;28;20119;-86
2022/06/09 12:02:25;;;;;;;3.00;0.70;;;30.90;37.40;;;;;;6255249;28;20041;-84
2022/06/09 12:05:33;;;;;;;5.30;0.70;;;30.80;38.10;;;;;;6251372;28;20049;-86
2022/06/09 12:08:39;;;;;;;;;;;30.70;38.90;;;;;;6230380;28;20406;-86
2022/06/09 12:11:54;;;;;;;8.50;0.85;;;30.30;39.40;;;;;;6231237;28;20671;-83
2022/06/09 12:15:23;;;;;;;10.13;0.80;;;29.70;40.40;;;;;;6244365;28;20516;-85
2022/06/09 12:18:36;;;;;;;;;;;29.10;39.30;;;;;;6230459;28;20046;-85
2022/06/09 12:21:39;;;;;;;5.05;0.30;;;28.60;40.40;;;;;;6230445;28;20302;-86
2022/06/09 12:25:21;;;;;;;4.10;0.32;;;28.20;39.70;;;;;;6230710;28;20058;-83
2022/06/09 12:28:46;;;;;;;3.00;0.52;;;27.90;41.30;;;;;;6229809;28;20049;-84
2022/06/09 12:32:39;;;;;;;4.80;0.50;;;28.00;41.90;;;;;;6229362;28;20046;-84
2022/06/09 12:35:51;;;;;;;2.67;0.40;;;28.00;42.10;;;;;;6228260;28;20133;-86
2022/06/09 12:38:56;;;;;;;3.03;0.47;;;27.90;42.80;;;;;;6227462;28;20042;-85
2022/06/09 12:42:00;;;;;;;5.20;0.90;;;28.00;43.40;;;;;;6252595;28;20103;-86
2022/06/09 12:45:07;;;;;;;3.15;0.30;;;28.20;44.10;;;;;;6255249;28;20493;-82
2022/06/09 12:48:14;;;;;;;5.70;0.93;;;27.90;43.90;;;;;;6246541;28;20038;-84
2022/06/09 12:51:20;;;;;;;5.43;0.75;;;27.80;44.30;;;;;;6229198;28;20046;-86
2022/06/09 12:54:29;;;;;;;3.58;0.70;;;27.70;45.20;;;;;;6248923;28;20068;-85
2022/06/09 12:57:33;;;;;;;9.73;1.33;;;27.60;45.00;;;;;;6255817;28;20485;-83
2022/06/09 13:00:37;;;;;;;4.43;0.65;;;27.30;44.90;;;;;;6254139;28;20045;-84
2022/06/09 13:03:42;;;;;;;2.00;0.43;;;27.20;46.30;;;;;;6253100;28;20055;-84
2022/06/09 13:06:47;;;;;;;4.18;0.68;;;27.20;48.30;;;;;;6248069;28;20057;-85
2022/06/09 13:10:05;;;;;;;5.50;0.70;;;26.90;50.80;;;;;;6227742;28;20053;-82
2022/06/09 13:13:08;;;;;;;;;;;26.50;50.80;;;;;;6246576;28;20361;-82
2022/06/09 13:16:13;;;;;;;5.25;0.70;;;26.30;50.50;;;;;;6252419;28;19921;-85
2022/06/09 13:19:18;;;;;;;4.13;0.75;;;26.10;50.40;;;;;;6253348;28;20082;-82
2022/06/09 13:22:22;;;;;;;6.22;0.50;;;26.30;50.30;;;;;;6252996;28;20045;-82
2022/06/09 13:25:27;;;;;;;8.70;0.55;;;26.50;50.10;;;;;;6252984;28;20049;-82
2022/06/09 13:28:35;;;;;;;2.42;0.52;;;27.10;49.60;;;;;;6253968;28;20053;-86
2022/06/09 13:31:41;;;;;;;2.75;0.60;;;27.70;47.60;;;;;;6253166;28;20037;-84
2022/06/09 13:34:45;;;;;;;2.45;0.95;;;28.40;44.20;;;;;;6254521;28;20145;-84
2022/06/09 13:37:48;;;;;;;2.45;0.50;;;29.10;42.90;;;;;;6253629;28;20052;-84
2022/06/09 13:40:54;;;;;;;1.42;0.30;;;29.30;41.00;;;;;;6254211;28;20049;-82
2022/06/09 13:43:59;;;;;;;7.45;0.50;;;29.10;40.80;;;;;;6253336;28;20048;-86
2022/06/09 13:47:10;;;;;;;2.95;0.40;;;29.20;41.30;;;;;;6252952;28;20041;-84
2022/06/09 13:50:21;;;;;;;2.85;0.40;;;29.10;41.20;;;;;;6251442;28;20045;-85
2022/06/09 13:53:30;;;;;;;5.55;0.70;;;28.90;42.60;;;;;;6246130;28;20479;-84
2022/06/09 13:56:34;;;;;;;3.28;0.35;;;29.00;41.20;;;;;;6253384;28;20064;-85
2022/06/09 13:59:35;;;;;;;3.22;0.40;;;29.00;41.20;;;;;;6252748;28;20045;-85
2022/06/09 14:02:47;;;;;;;3.40;0.55;;;28.90;40.90;;;;;;6253523;28;20037;-85
2022/06/09 14:05:52;;;;;;;3.15;0.57;;;28.60;41.10;;;;;;6254695;28;20048;-84
2022/06/09 14:08:56;;;;;;;2.78;0.47;;;28.40;41.80;;;;;;6251611;28;20111;-85
2022/06/09 14:11:58;;;;;;;2.50;0.47;;;28.50;41.80;;;;;;6253554;28;20041;-85
2022/06/09 14:15:01;;;;;;;1.73;0.38;;;28.80;41.70;;;;;;6250182;28;20052;-86
2022/06/09 14:18:03;;;;;;;1.55;0.30;;;29.00;41.10;;;;;;6250749;28;20567;-87
2022/06/09 14:21:05;;;;;;;3.50;0.50;;;28.90;41.10;;;;;;6254229;28;20513;-83
2022/06/09 14:24:15;;;;;;;7.72;0.55;;;28.80;41.80;;;;;;6255116;28;20050;-84
2022/06/09 14:27:16;;;;;;;2.67;0.52;;;28.50;43.30;;;;;;6254413;28;20050;-87
2022/06/09 14:30:21;;;;;;;0.93;0.30;;;28.00;44.10;;;;;;6254199;28;20041;-86
2022/06/09 14:33:22;;;;;;;1.95;0.73;;;27.50;45.10;;;;;;6255561;28;20128;-84
2022/06/09 14:36:26;;;;;;;6.20;0.55;;;26.60;47.00;;;;;;6259426;28;20192;-85
2022/06/09 14:39:29;;;;;;;3.60;0.47;;;25.90;48.60;;;;;;6255050;28;20056;-85
2022/06/09 14:42:31;;;;;;;12.38;0.88;;;25.50;50.00;;;;;;6257970;28;20043;-84
2022/06/09 14:45:34;;;;;;;4.03;0.55;;;25.80;49.60;;;;;;6247034;28;20049;-83
2022/06/09 14:48:35;;;;;;;4.32;0.73;;;26.30;49.50;;;;;;6256691;28;20489;-84
2022/06/09 14:51:37;;;;;;;1.05;0.40;;;26.40;49.20;;;;;;6254824;28;20052;-85
2022/06/09 14:54:40;;;;;;;2.30;0.70;;;26.40;47.50;;;;;;6255506;28;20048;-84
2022/06/09 14:57:43;;;;;;;2.08;0.52;;;25.70;48.90;;;;;;6255791;28;20051;-82
2022/06/09 15:00:45;;;;;;;5.45;0.80;;;25.30;50.90;;;;;;6257149;28;20059;-86
2022/06/09 15:03:47;;;;;;;4.28;0.43;;;24.90;52.80;;;;;;6259625;28;20053;-83
2022/06/09 15:06:49;;;;;;;4.72;0.75;;;24.50;55.70;;;;;;6259712;28;20057;-83
2022/06/09 15:09:52;;;;;;;1.00;0.60;;;24.10;56.40;;;;;;6254610;28;20037;-84
2022/06/09 15:12:54;;;;;;;2.35;0.43;;;24.20;57.50;;;;;;6266455;28;20079;-82
2022/06/09 15:16:01;;;;;;;2.20;0.30;;;24.50;56.20;;;;;;6259451;28;20048;-83
2022/06/09 15:19:03;;;;;;;0.88;0.60;;;24.70;53.20;;;;;;6260513;28;20049;-83
2022/06/09 15:22:05;;;;;;;3.53;0.63;;;24.20;52.30;;;;;;6263868;28;20033;-85
2022/06/09 15:25:10;;;;;;;4.05;0.40;;;24.00;54.00;;;;;;6262189;28;20049;-86
2022/06/09 15:28:15;;;;;;;4.80;0.47;;;24.20;54.90;;;;;;6259889;28;20103;-84
2022/06/09 15:31:17;;;;;;;1.63;0.30;;;24.30;55.00;;;;;;6258964;28;20052;-83
2022/06/09 15:34:22;;;;;;;2.03;0.43;;;24.50;55.30;;;;;;6259986;28;20052;-83
2022/06/09 15:37:24;;;;;;;2.58;0.40;;;24.40;54.90;;;;;;6259210;28;20055;-85
2022/06/09 15:45:08;;;;;;;0.80;0.30;;;23.10;60.80;;;;;;6267732;28;20052;-86
2022/06/09 15:56:41;;;;;;;3.13;0.32;;;21.60;69.20;;;;;;6178314;28;20050;-86
2022/06/09 16:00:01;;;;;;;3.90;0.50;;;21.20;73.60;;;;;;6257166;28;20069;-86
2022/06/09 16:03:03;;;;;;;2.95;0.55;;;21.20;74.00;;;;;;6264246;28;20042;-86
2022/06/09 16:06:11;;;;;;;2.53;0.50;;;21.50;72.60;;;;;;6265086;28;20045;-87
2022/06/09 16:09:18;;;;;;;2.90;0.75;;;22.20;71.40;;;;;;6248935;28;20050;-87
2022/06/09 16:12:21;;;;;;;2.58;0.40;;;23.10;69.70;;;;;;6235961;28;20061;-85
2022/06/09 16:15:25;;;;;;;5.63;0.43;;;23.80;67.40;;;;;;6257487;28;20049;-85
2022/06/09 16:18:29;;;;;;;6.55;0.63;;;24.30;63.80;;;;;;6264149;28;20068;-87
2022/06/09 16:21:32;;;;;;;2.90;0.63;;;24.80;55.90;;;;;;6261068;28;20049;-86
2022/06/09 16:24:36;;;;;;;1.35;0.22;;;25.20;52.20;;;;;;6263014;28;20160;-86
2022/06/09 16:27:42;;;;;;;5.15;0.50;;;25.60;50.20;;;;;;6259446;28;20648;-86
2022/06/09 16:30:46;;;;;;;3.30;0.60;;;25.70;49.90;;;;;;6261556;28;20436;-87
2022/06/09 16:33:51;;;;;;;1.23;0.43;;;25.80;49.10;;;;;;6265364;28;20053;-87
2022/06/09 16:36:54;;;;;;;1.10;0.30;;;26.00;48.60;;;;;;6266105;28;20475;-88
2022/06/09 16:39:56;;;;;;;2.00;0.50;;;26.10;48.20;;;;;;6265278;28;20191;-88
2022/06/09 16:42:58;;;;;;;1.98;0.38;;;26.00;48.10;;;;;;6235397;28;20076;-86
2022/06/09 16:46:01;;;;;;;2.45;0.30;;;26.10;47.30;;;;;;6221786;28;20049;-83
2022/06/09 16:49:03;;;;;;;5.72;0.50;;;26.20;47.20;;;;;;6258472;28;20124;-87
2022/06/09 16:52:06;;;;;;;3.55;0.50;;;26.30;46.50;;;;;;6268702;28;20144;-85
2022/06/09 16:55:11;;;;;;;2.70;0.40;;;26.20;46.40;;;;;;6257581;28;20055;-87